Time;durP1;ratioP1;P1;durP2;ratioP2;P2;SDS_P1;SDS_P2;PMS_P1;PMS_P2;Temp;Humidity;BMP_temperature;BMP_pressure;BME280_temperature;BME280_humidity;BME280_pressure;Samples;Min_cycle;Max_cycle;Signal;HPM_P1;HPM_P2
2023/01/11 00:00:07;;;;;;;16.58;7.18;;;;;;;;;;5153922;27;20034;-72
2023/01/11 00:02:33;;;;;;;22.88;7.78;;;;;;;;;;5154019;27;20109;-71
2023/01/11 00:04:59;;;;;;;16.52;7.25;;;;;;;;;;5153952;27;20019;-70
2023/01/11 00:07:24;;;;;;;16.80;7.07;;;;;;;;;;5153958;27;20031;-73
2023/01/11 00:09:50;;;;;;;22.67;7.10;;;;;;;;;;5153613;27;20027;-72
2023/01/11 00:12:18;;;;;;;16.90;6.95;;;;;;;;;;5153675;27;20481;-70
2023/01/11 00:14:43;;;;;;;16.70;6.18;;;;;;;;;;5153763;27;20050;-71
2023/01/11 00:17:09;;;;;;;17.52;6.35;;;;;;;;;;5153856;27;20058;-69
2023/01/11 00:19:34;;;;;;;17.48;6.03;;;;;;;;;;5152084;27;20031;-72
2023/01/11 00:22:00;;;;;;;13.23;5.50;;;;;;;;;;5152559;27;20504;-71
2023/01/11 00:24:26;;;;;;;14.63;5.80;;;;;;;;;;5153392;27;20454;-74
2023/01/11 00:26:51;;;;;;;14.95;5.47;;;;;;;;;;5153229;27;20031;-74
2023/01/11 00:29:16;;;;;;;15.55;5.95;;;;;;;;;;5153441;27;20118;-73
2023/01/11 00:31:42;;;;;;;16.48;5.75;;;;;;;;;;5153488;27;20040;-74
2023/01/11 00:34:07;;;;;;;13.98;5.43;;;;;;;;;;5153386;27;20494;-73
2023/01/11 00:36:33;;;;;;;16.08;5.35;;;;;;;;;;5153434;27;20026;-73
2023/01/11 00:39:00;;;;;;;18.33;5.57;;;;;;;;;;5153275;27;20452;-72
2023/01/11 00:49:38;;;;;;;13.80;4.57;;;;;;;;;;5153292;27;20121;-69
2023/01/11 00:52:07;;;;;;;13.82;5.07;;;;;;;;;;5153501;27;20517;-70
2023/01/11 00:54:33;;;;;;;11.30;4.53;;;;;;;;;;5152418;27;20019;-70
2023/01/11 00:56:59;;;;;;;10.32;4.50;;;;;;;;;;5167788;27;20030;-69
2023/01/11 00:59:24;;;;;;;12.32;4.70;;;;;;;;;;5175715;27;20023;-70
2023/01/11 01:01:49;;;;;;;14.10;4.68;;;;;;;;;;5155423;27;20030;-69
2023/01/11 01:04:15;;;;;;;12.32;4.18;;;;;;;;;;5153376;27;20023;-69
2023/01/11 01:06:40;;;;;;;14.18;4.93;;;;;;;;;;5153253;27;20029;-70
2023/01/11 01:09:06;;;;;;;11.40;4.22;;;;;;;;;;5153149;27;20037;-70
2023/01/11 01:11:31;;;;;;;10.75;4.72;;;;;;;;;;5152783;27;20033;-69
2023/01/11 01:16:41;;;;;;;13.70;4.70;;;;;;;;;;5152483;27;20539;-69
2023/01/11 01:19:07;;;;;;;12.60;4.40;;;;;;;;;;5152477;27;20022;-70
2023/01/11 01:21:33;;;;;;;11.23;3.90;;;;;;;;;;5152229;27;20026;-70
2023/01/11 01:23:58;;;;;;;16.25;4.38;;;;;;;;;;5152507;27;20168;-69
2023/01/11 01:26:23;;;;;;;11.20;3.88;;;;;;;;;;5152598;27;20026;-69
2023/01/11 01:28:49;;;;;;;12.48;3.67;;;;;;;;;;5152517;27;20019;-69
2023/01/11 01:31:15;;;;;;;10.73;4.00;;;;;;;;;;5152095;27;20029;-69
2023/01/11 01:33:40;;;;;;;13.85;4.15;;;;;;;;;;5152312;27;20030;-71
2023/01/11 01:36:06;;;;;;;11.10;3.90;;;;;;;;;;5151723;27;20046;-73
2023/01/11 01:38:31;;;;;;;12.65;3.95;;;;;;;;;;5152364;27;20046;-70
2023/01/11 01:40:57;;;;;;;10.45;3.67;;;;;;;;;;5152333;27;20439;-70
2023/01/11 01:43:43;;;;;;;10.93;3.72;;;;;;;;;;5152535;27;20034;-72
2023/01/11 01:46:08;;;;;;;15.70;4.22;;;;;;;;;;5157447;27;20046;-70
2023/01/11 01:48:35;;;;;;;13.93;3.75;;;;;;;;;;5165902;27;20023;-71
2023/01/11 01:51:02;;;;;;;12.52;3.75;;;;;;;;;;5159090;27;20027;-72
2023/01/11 01:53:34;;;;;;;14.80;4.72;;;;;;;;;;5153230;27;20023;-74
2023/01/11 01:56:01;;;;;;;12.88;4.18;;;;;;;;;;5152259;27;20022;-73
2023/01/11 01:58:34;;;;;;;10.65;3.55;;;;;;;;;;5152117;27;20102;-70
2023/01/11 02:01:45;;;;;;;12.55;3.97;;;;;;;;;;5151935;27;20030;-75
2023/01/11 02:03:46;;;;;;;14.15;4.13;;;;;;;;;;5151785;27;20034;-74
2023/01/11 02:06:12;;;;;;;10.85;4.10;;;;;;;;;;5152053;27;20402;-72
2023/01/11 02:08:40;;;;;;;14.10;4.05;;;;;;;;;;5152097;27;20467;-71
2023/01/11 02:11:28;;;;;;;11.05;4.20;;;;;;;;;;5151533;27;20027;-72
2023/01/11 02:13:53;;;;;;;13.15;4.10;;;;;;;;;;5151965;27;20031;-73
2023/01/11 02:16:18;;;;;;;10.43;4.20;;;;;;;;;;5152017;27;20027;-73
2023/01/11 02:18:44;;;;;;;12.75;4.82;;;;;;;;;;5151960;27;20160;-75
2023/01/11 02:21:38;;;;;;;11.13;4.38;;;;;;;;;;5151616;27;20039;-74
2023/01/11 02:24:18;;;;;;;14.98;4.32;;;;;;;;;;5152067;27;20019;-73
2023/01/11 02:27:04;;;;;;;18.33;4.80;;;;;;;;;;5151901;27;20114;-74
2023/01/11 02:29:45;;;;;;;11.80;4.45;;;;;;;;;;5151145;27;20027;-73
2023/01/11 02:32:19;;;;;;;;;;;;;;;;;;5150577;27;20493;-73
2023/01/11 02:35:00;;;;;;;10.50;3.78;;;;;;;;;;5151789;27;19967;-74
2023/01/11 02:37:31;;;;;;;11.57;4.28;;;;;;;;;;5152176;27;20383;-73
2023/01/11 02:39:59;;;;;;;9.27;4.20;;;;;;;;;;5151808;27;20478;-74
2023/01/11 02:45:46;;;;;;;11.55;4.10;;;;;;;;;;5151406;27;20178;-74
2023/01/11 02:48:32;;;;;;;11.32;4.30;;;;;;;;;;5153426;27;20030;-73
2023/01/11 02:51:07;;;;;;;12.68;4.45;;;;;;;;;;5155215;27;20526;-71
2023/01/11 02:53:41;;;;;;;11.23;4.30;;;;;;;;;;5155548;27;20027;-74
2023/01/11 02:56:12;;;;;;;11.55;4.57;;;;;;;;;;5155491;27;20026;-72
2023/01/11 02:58:39;;;;;;;;;;;;;;;;;;5155734;27;20027;-70
2023/01/11 03:01:04;;;;;;;14.18;4.68;;;;;;;;;;5154965;27;19915;-74
2023/01/11 03:03:31;;;;;;;11.18;4.78;;;;;;;;;;5155005;27;20034;-73
2023/01/11 03:05:56;;;;;;;11.38;4.30;;;;;;;;;;5155063;27;20015;-72
2023/01/11 03:08:33;;;;;;;9.32;4.47;;;;;;;;;;5155054;27;20033;-74
2023/01/11 03:11:06;;;;;;;8.48;4.13;;;;;;;;;;5154972;27;20026;-71
2023/01/11 03:13:37;;;;;;;11.52;4.30;;;;;;;;;;5154995;27;20505;-74
2023/01/11 03:16:13;;;;;;;10.35;4.07;;;;;;;;;;5155057;27;20027;-74
2023/01/11 03:18:51;;;;;;;12.32;4.57;;;;;;;;;;5154846;27;20045;-75
2023/01/11 03:21:19;;;;;;;10.88;3.90;;;;;;;;;;5154535;27;20645;-73
2023/01/11 03:23:47;;;;;;;10.85;4.25;;;;;;;;;;5154720;27;20052;-73
2023/01/11 03:26:29;;;;;;;11.15;3.80;;;;;;;;;;5154794;27;20428;-71
2023/01/11 03:29:08;;;;;;;10.98;3.85;;;;;;;;;;5154929;27;20034;-73
2023/01/11 03:31:38;;;;;;;9.00;3.72;;;;;;;;;;5154626;27;20047;-70
2023/01/11 03:34:29;;;;;;;10.77;3.90;;;;;;;;;;5154494;27;20424;-71
2023/01/11 03:37:04;;;;;;;8.45;3.25;;;;;;;;;;5154470;27;20031;-73
2023/01/11 03:39:33;;;;;;;9.80;3.50;;;;;;;;;;5154480;27;20059;-69
2023/01/11 03:42:01;;;;;;;10.68;3.58;;;;;;;;;;5154250;27;20025;-71
2023/01/11 03:44:32;;;;;;;8.55;3.50;;;;;;;;;;5154298;27;20022;-69
2023/01/11 03:47:04;;;;;;;8.63;3.35;;;;;;;;;;5154183;27;20129;-71
2023/01/11 03:49:42;;;;;;;9.73;3.55;;;;;;;;;;5154320;27;20458;-69
2023/01/11 03:52:11;;;;;;;7.45;3.30;;;;;;;;;;5154197;27;20027;-70
2023/01/11 03:54:37;;;;;;;11.52;3.60;;;;;;;;;;5153969;27;20114;-70
2023/01/11 03:57:16;;;;;;;8.05;3.30;;;;;;;;;;5153944;27;20018;-70
2023/01/11 03:59:41;;;;;;;9.85;3.53;;;;;;;;;;5153531;27;20023;-70
2023/01/11 04:02:24;;;;;;;13.48;3.83;;;;;;;;;;5152536;27;20022;-70
2023/01/11 04:04:50;;;;;;;11.57;4.10;;;;;;;;;;5153939;27;20037;-70
2023/01/11 04:07:18;;;;;;;9.50;3.60;;;;;;;;;;5154093;27;20019;-69
2023/01/11 04:09:44;;;;;;;8.50;3.50;;;;;;;;;;5153987;27;20027;-71
2023/01/11 04:12:10;;;;;;;12.70;3.60;;;;;;;;;;5152359;27;20110;-70
2023/01/11 04:14:35;;;;;;;7.63;3.47;;;;;;;;;;5153677;27;20055;-70
2023/01/11 04:17:01;;;;;;;7.65;3.50;;;;;;;;;;5153787;27;20599;-71
2023/01/11 04:19:27;;;;;;;10.40;3.30;;;;;;;;;;5153569;27;20057;-74
2023/01/11 04:21:52;;;;;;;10.15;3.47;;;;;;;;;;5153513;27;20027;-73
2023/01/11 04:24:18;;;;;;;9.98;3.80;;;;;;;;;;5153732;27;20027;-74
2023/01/11 04:26:43;;;;;;;9.52;3.70;;;;;;;;;;5153573;27;20023;-72
2023/01/11 04:29:09;;;;;;;11.38;3.78;;;;;;;;;;5153950;27;20027;-71
2023/01/11 04:31:35;;;;;;;11.45;3.70;;;;;;;;;;5166650;27;20023;-73
2023/01/11 04:34:00;;;;;;;10.60;3.53;;;;;;;;;;5171150;27;20042;-71
2023/01/11 04:36:27;;;;;;;10.07;3.78;;;;;;;;;;5155909;27;20018;-70
2023/01/11 04:38:53;;;;;;;9.65;3.47;;;;;;;;;;5153947;27;20022;-73
2023/01/11 04:44:02;;;;;;;8.60;3.70;;;;;;;;;;5153856;27;20075;-71
2023/01/11 04:46:27;;;;;;;10.85;4.15;;;;;;;;;;5153463;27;20035;-68
2023/01/11 04:48:55;;;;;;;12.05;4.30;;;;;;;;;;5161185;27;20511;-75
2023/01/11 04:51:20;;;;;;;10.40;4.22;;;;;;;;;;5166251;27;20044;-74
2023/01/11 04:53:47;;;;;;;8.73;3.63;;;;;;;;;;5160829;27;20023;-74
2023/01/11 04:56:14;;;;;;;11.55;4.20;;;;;;;;;;5153469;27;20106;-71
2023/01/11 04:58:40;;;;;;;12.00;3.92;;;;;;;;;;5153485;27;20625;-72
2023/01/11 05:01:17;;;;;;;13.20;4.15;;;;;;;;;;5153187;27;20026;-73
2023/01/11 05:03:44;;;;;;;10.70;4.28;;;;;;;;;;5152494;27;20501;-74
2023/01/11 05:06:10;;;;;;;11.70;4.30;;;;;;;;;;5152752;27;20022;-74
2023/01/11 05:08:35;;;;;;;12.13;4.68;;;;;;;;;;5151341;27;20021;-72
2023/01/11 05:11:03;;;;;;;10.77;4.38;;;;;;;;;;5150488;27;20057;-74
2023/01/11 05:13:41;;;;;;;12.35;4.53;;;;;;;;;;5152695;27;20018;-70
2023/01/11 05:16:19;;;;;;;11.60;4.95;;;;;;;;;;5152765;27;20019;-71
2023/01/11 05:18:45;;;;;;;10.95;5.20;;;;;;;;;;5152571;27;20079;-73
2023/01/11 05:21:13;;;;;;;8.82;4.40;;;;;;;;;;5152720;27;20027;-70
2023/01/11 05:23:39;;;;;;;11.60;4.70;;;;;;;;;;5152249;27;20027;-71
2023/01/11 05:26:07;;;;;;;14.73;4.90;;;;;;;;;;5152414;27;20083;-73
2023/01/11 05:28:33;;;;;;;12.57;5.22;;;;;;;;;;5152416;27;20026;-75
2023/01/11 05:30:59;;;;;;;11.18;4.80;;;;;;;;;;5152467;27;20025;-72
2023/01/11 05:33:24;;;;;;;9.93;4.57;;;;;;;;;;5152068;27;20015;-69
2023/01/11 05:35:56;;;;;;;10.95;4.32;;;;;;;;;;5152412;27;20687;-74
2023/01/11 05:38:22;;;;;;;9.32;4.57;;;;;;;;;;5152319;27;20023;-73
2023/01/11 05:40:55;;;;;;;10.40;4.18;;;;;;;;;;5152142;27;20029;-74
2023/01/11 05:43:20;;;;;;;9.93;4.45;;;;;;;;;;5151814;27;20051;-73
2023/01/11 05:45:46;;;;;;;13.32;5.47;;;;;;;;;;5152013;27;20443;-73
2023/01/11 05:48:11;;;;;;;12.70;5.43;;;;;;;;;;5152302;27;20075;-70
2023/01/11 05:50:36;;;;;;;12.30;5.50;;;;;;;;;;5152028;27;20050;-74
2023/01/11 05:53:02;;;;;;;14.75;6.53;;;;;;;;;;5152147;27;20030;-70
2023/01/11 05:55:27;;;;;;;14.77;6.18;;;;;;;;;;5152151;27;20022;-74
2023/01/11 05:57:53;;;;;;;16.17;6.00;;;;;;;;;;5150702;27;20039;-73
2023/01/11 06:00:18;;;;;;;15.43;6.10;;;;;;;;;;5152132;27;20083;-68
2023/01/11 06:02:44;;;;;;;12.15;5.47;;;;;;;;;;5151888;27;20098;-71
2023/01/11 06:05:09;;;;;;;13.80;5.15;;;;;;;;;;5152002;27;20494;-70
2023/01/11 06:07:34;;;;;;;13.65;5.35;;;;;;;;;;5151966;27;20023;-69
2023/01/11 06:10:00;;;;;;;13.73;5.28;;;;;;;;;;5151981;27;20030;-70
2023/01/11 06:12:25;;;;;;;11.63;5.47;;;;;;;;;;5151763;27;20027;-70
2023/01/11 06:14:51;;;;;;;14.40;5.22;;;;;;;;;;5151894;27;20358;-68
2023/01/11 06:17:16;;;;;;;12.98;5.38;;;;;;;;;;5151979;27;20027;-70
2023/01/11 06:19:41;;;;;;;12.30;5.60;;;;;;;;;;5151589;27;20110;-70
2023/01/11 06:22:07;;;;;;;12.65;5.30;;;;;;;;;;5153623;27;20027;-70
2023/01/11 06:24:32;;;;;;;9.70;4.60;;;;;;;;;;5156166;27;20026;-70
2023/01/11 06:26:58;;;;;;;12.30;5.68;;;;;;;;;;5156006;27;20026;-69
2023/01/11 06:29:23;;;;;;;14.55;5.13;;;;;;;;;;5155811;27;20019;-69
2023/01/11 06:31:48;;;;;;;12.93;5.25;;;;;;;;;;5155755;27;20371;-70
2023/01/11 06:34:14;;;;;;;12.90;5.18;;;;;;;;;;5155206;27;20026;-71
2023/01/11 06:36:39;;;;;;;12.13;5.35;;;;;;;;;;5155638;27;20051;-68
2023/01/11 06:39:05;;;;;;;13.38;5.60;;;;;;;;;;5155769;27;20061;-71
2023/01/11 06:41:30;;;;;;;11.23;5.53;;;;;;;;;;5154234;27;20031;-68
2023/01/11 06:43:56;;;;;;;15.30;6.20;;;;;;;;;;5155496;27;20034;-69
2023/01/11 06:46:21;;;;;;;15.60;5.68;;;;;;;;;;5155449;27;20039;-70
2023/01/11 06:48:47;;;;;;;13.23;4.55;;;;;;;;;;5155378;27;20026;-73
2023/01/11 06:51:14;;;;;;;14.27;5.63;;;;;;;;;;5155726;27;20026;-70
2023/01/11 06:53:41;;;;;;;15.20;5.15;;;;;;;;;;5155240;27;20019;-71
2023/01/11 06:56:09;;;;;;;13.77;4.90;;;;;;;;;;5155469;27;20026;-70
2023/01/11 06:58:36;;;;;;;16.15;4.88;;;;;;;;;;5155696;27;20075;-70
2023/01/11 07:01:02;;;;;;;12.10;5.35;;;;;;;;;;5156023;27;20044;-69
2023/01/11 07:03:27;;;;;;;18.52;4.75;;;;;;;;;;5155822;27;20462;-70
2023/01/11 07:05:55;;;;;;;11.70;5.20;;;;;;;;;;5155167;27;20389;-70
2023/01/11 07:08:21;;;;;;;12.70;5.28;;;;;;;;;;5155545;27;20054;-71
2023/01/11 07:10:47;;;;;;;14.23;5.35;;;;;;;;;;5155594;27;20019;-72
2023/01/11 07:13:16;;;;;;;14.65;5.35;;;;;;;;;;5160640;27;20427;-71
2023/01/11 07:15:43;;;;;;;12.90;5.47;;;;;;;;;;5159835;27;20026;-70
2023/01/11 07:18:10;;;;;;;9.90;5.18;;;;;;;;;;5154920;27;20156;-70
2023/01/11 07:20:35;;;;;;;14.52;5.18;;;;;;;;;;5154721;27;20090;-69
2023/01/11 07:23:01;;;;;;;16.25;6.38;;;;;;;;;;5154493;27;20456;-69
2023/01/11 07:25:27;;;;;;;13.98;5.53;;;;;;;;;;5153295;27;20530;-70
2023/01/11 07:28:01;;;;;;;10.75;4.93;;;;;;;;;;5154492;27;20022;-70
2023/01/11 07:30:29;;;;;;;12.38;5.15;;;;;;;;;;5154530;27;20030;-69
2023/01/11 07:32:56;;;;;;;10.80;5.60;;;;;;;;;;5153742;27;20019;-68
2023/01/11 07:35:22;;;;;;;12.43;5.25;;;;;;;;;;5154281;27;20029;-70
2023/01/11 07:37:47;;;;;;;12.90;5.95;;;;;;;;;;5154430;27;20019;-71
2023/01/11 07:40:15;;;;;;;14.75;5.78;;;;;;;;;;5154381;27;20482;-70
2023/01/11 07:45:29;;;;;;;15.18;6.50;;;;;;;;;;5154230;27;20551;-70
2023/01/11 07:47:54;;;;;;;15.00;7.25;;;;;;;;;;5154018;27;20030;-71
2023/01/11 07:50:20;;;;;;;12.65;6.35;;;;;;;;;;5154118;27;20049;-70
2023/01/11 07:52:47;;;;;;;15.90;5.40;;;;;;;;;;5154187;27;20553;-70
2023/01/11 07:55:13;;;;;;;13.15;5.72;;;;;;;;;;5154455;27;20117;-69
2023/01/11 07:57:38;;;;;;;18.15;6.55;;;;;;;;;;5154159;27;20050;-70
2023/01/11 08:00:04;;;;;;;16.15;6.15;;;;;;;;;;5153874;27;20034;-70
2023/01/11 08:02:29;;;;;;;17.90;6.70;;;;;;;;;;5153809;27;20697;-67
2023/01/11 08:04:54;;;;;;;13.63;6.05;;;;;;;;;;5152364;27;20019;-73
2023/01/11 08:07:20;;;;;;;15.95;5.28;;;;;;;;;;5153799;27;20050;-70
2023/01/11 08:09:45;;;;;;;14.48;5.70;;;;;;;;;;5154125;27;20046;-70
2023/01/11 08:14:55;;;;;;;9.68;4.18;;;;;;;;;;5154007;27;20398;-70
2023/01/11 08:17:20;;;;;;;11.15;4.38;;;;;;;;;;5153673;27;20469;-70
2023/01/11 08:19:46;;;;;;;13.13;4.63;;;;;;;;;;5153288;27;20030;-72
2023/01/11 08:22:11;;;;;;;12.38;4.47;;;;;;;;;;5153725;27;20102;-70
2023/01/11 08:24:36;;;;;;;11.30;4.68;;;;;;;;;;5153428;27;20485;-71
2023/01/11 08:27:03;;;;;;;11.85;4.70;;;;;;;;;;5153909;27;20518;-77
2023/01/11 08:29:28;;;;;;;17.90;5.05;;;;;;;;;;5153683;27;20047;-76
2023/01/11 08:31:54;;;;;;;8.95;4.55;;;;;;;;;;5153499;27;20073;-69
2023/01/11 08:34:19;;;;;;;13.23;5.00;;;;;;;;;;5153316;27;20461;-71
2023/01/11 08:36:45;;;;;;;13.40;5.05;;;;;;;;;;5151866;27;20132;-68
2023/01/11 08:39:10;;;;;;;13.65;5.65;;;;;;;;;;5154895;27;20015;-68
2023/01/11 08:41:37;;;;;;;13.35;4.93;;;;;;;;;;5157474;27;20109;-68
2023/01/11 08:44:02;;;;;;;11.23;4.90;;;;;;;;;;5155801;27;20044;-68
2023/01/11 08:46:28;;;;;;;11.23;4.30;;;;;;;;;;5154941;27;20110;-77
2023/01/11 08:48:53;;;;;;;12.18;4.53;;;;;;;;;;5153646;27;20082;-73
2023/01/11 08:51:19;;;;;;;6.85;3.67;;;;;;;;;;5153315;27;20026;-72
2023/01/11 08:53:44;;;;;;;17.27;4.50;;;;;;;;;;5153089;27;20114;-72
2023/01/11 08:56:10;;;;;;;9.60;3.70;;;;;;;;;;5152031;27;20110;-70
2023/01/11 08:58:35;;;;;;;9.65;3.72;;;;;;;;;;5152809;27;20030;-71
2023/01/11 09:01:02;;;;;;;7.50;3.65;;;;;;;;;;5151776;27;20041;-69
2023/01/11 09:03:31;;;;;;;7.65;3.63;;;;;;;;;;5150672;27;20018;-69
2023/01/11 09:05:56;;;;;;;15.57;5.43;;;;;;;;;;5152838;27;20036;-71
2023/01/11 09:08:23;;;;;;;10.73;4.15;;;;;;;;;;5152780;27;20027;-68
2023/01/11 09:10:49;;;;;;;11.65;4.00;;;;;;;;;;5152466;27;20027;-70
2023/01/11 09:13:15;;;;;;;9.68;3.88;;;;;;;;;;5152410;27;20071;-69
2023/01/11 09:15:40;;;;;;;8.30;3.95;;;;;;;;;;5152488;27;20050;-69
2023/01/11 09:18:05;;;;;;;11.93;3.92;;;;;;;;;;5152344;27;20030;-69
2023/01/11 09:20:31;;;;;;;8.63;3.70;;;;;;;;;;5152428;27;20031;-69
2023/01/11 09:22:56;;;;;;;8.30;3.85;;;;;;;;;;5152528;27;20015;-73
2023/01/11 09:25:22;;;;;;;10.90;4.13;;;;;;;;;;5152369;27;20091;-72
2023/01/11 09:27:51;;;;;;;10.85;4.60;;;;;;;;;;5152178;27;20413;-76
2023/01/11 09:30:18;;;;;;;10.40;4.15;;;;;;;;;;5150320;27;20026;-72
2023/01/11 09:32:45;;;;;;;12.98;4.40;;;;;;;;;;5151099;27;20090;-73
2023/01/11 09:35:11;;;;;;;8.85;4.15;;;;;;;;;;5152321;27;20018;-90
2023/01/11 09:37:40;;;;;;;12.40;4.50;;;;;;;;;;5153089;27;20610;-74
2023/01/11 09:40:13;;;;;;;15.27;4.45;;;;;;;;;;5152237;27;20106;-77
2023/01/11 09:42:39;;;;;;;11.02;4.10;;;;;;;;;;5150700;27;20034;-72
2023/01/11 09:45:22;;;;;;;12.82;4.57;;;;;;;;;;5151692;27;20060;-71
2023/01/11 09:48:11;;;;;;;10.75;4.20;;;;;;;;;;5151865;27;20071;-70
2023/01/11 09:50:42;;;;;;;13.88;4.80;;;;;;;;;;5152171;27;20026;-71
2023/01/11 09:53:33;;;;;;;14.88;4.57;;;;;;;;;;5152187;27;20097;-69
2023/01/11 09:56:02;;;;;;;12.13;4.85;;;;;;;;;;5153135;27;20031;-73
2023/01/11 09:58:49;;;;;;;19.52;5.13;;;;;;;;;;5159237;27;20031;-80
2023/01/11 10:01:38;;;;;;;16.30;5.32;;;;;;;;;;5159532;27;20353;-74
2023/01/11 10:04:36;;;;;;;11.75;4.65;;;;;;;;;;5158747;27;20110;-73
2023/01/11 10:07:18;;;;;;;14.80;6.15;;;;;;;;;;5157496;27;20035;-75
2023/01/11 10:10:02;;;;;;;16.27;6.18;;;;;;;;;;5157169;27;20044;-75
2023/01/11 10:12:37;;;;;;;14.85;6.00;;;;;;;;;;5157565;27;20034;-71
2023/01/11 10:15:12;;;;;;;13.90;5.82;;;;;;;;;;5158851;27;20032;-74
2023/01/11 10:18:02;;;;;;;20.17;6.10;;;;;;;;;;5157670;27;20030;-71
2023/01/11 10:20:39;;;;;;;18.10;6.15;;;;;;;;;;5158614;27;20031;-73
2023/01/11 10:23:13;;;;;;;14.60;5.90;;;;;;;;;;5161113;27;20117;-77
2023/01/11 10:25:50;;;;;;;14.35;5.80;;;;;;;;;;5158516;27;20042;-74
2023/01/11 10:28:24;;;;;;;16.15;6.05;;;;;;;;;;5158069;27;20022;-72
2023/01/11 10:36:34;;;;;;;11.00;5.22;;;;;;;;;;5156877;27;20483;-72
2023/01/11 10:39:38;;;;;;;15.20;5.60;;;;;;;;;;5156305;27;20058;-75
2023/01/11 10:42:16;;;;;;;14.50;5.30;;;;;;;;;;5159577;27;20037;-73
2023/01/11 10:44:51;;;;;;;16.45;5.72;;;;;;;;;;5157995;27;20022;-73
2023/01/11 10:47:22;;;;;;;15.68;5.97;;;;;;;;;;5158300;27;20098;-77
2023/01/11 10:49:50;;;;;;;;;;;;;;;;;;5160506;27;20030;-71
2023/01/11 10:52:43;;;;;;;11.57;6.03;;;;;;;;;;5158613;27;20044;-73
2023/01/11 10:55:22;;;;;;;12.43;5.60;;;;;;;;;;5157968;27;20029;-72
2023/01/11 10:58:07;;;;;;;11.82;5.63;;;;;;;;;;5166320;27;20034;-73
2023/01/11 11:00:47;;;;;;;13.95;6.20;;;;;;;;;;5158194;27;20026;-75
2023/01/11 11:03:31;;;;;;;18.20;6.10;;;;;;;;;;5158937;27;20046;-74
2023/01/11 11:06:10;;;;;;;9.85;5.60;;;;;;;;;;5158067;27;20343;-76
2023/01/11 11:08:47;;;;;;;12.45;5.18;;;;;;;;;;5154749;27;20059;-77
2023/01/11 11:11:17;;;;;;;17.88;5.88;;;;;;;;;;5155303;27;20022;-75
2023/01/11 11:14:01;;;;;;;;;;;;;;;;;;5157215;27;20030;-74
2023/01/11 11:16:48;;;;;;;11.75;5.10;;;;;;;;;;5154560;27;20002;-74
2023/01/11 11:19:18;;;;;;;11.60;5.00;;;;;;;;;;5155647;27;20065;-77
2023/01/11 11:21:43;;;;;;;12.90;5.20;;;;;;;;;;5154650;27;20023;-76
2023/01/11 11:24:32;;;;;;;14.50;5.30;;;;;;;;;;5154433;27;20037;-76
2023/01/11 11:27:10;;;;;;;11.35;5.75;;;;;;;;;;5154763;27;20019;-75
2023/01/11 11:29:47;;;;;;;12.75;5.45;;;;;;;;;;5154688;27;20043;-71
2023/01/11 11:32:26;;;;;;;12.85;4.97;;;;;;;;;;5159861;27;20023;-73
2023/01/11 11:34:52;;;;;;;11.23;5.43;;;;;;;;;;5153808;27;20081;-72
2023/01/11 11:37:21;;;;;;;9.32;4.88;;;;;;;;;;5154390;27;20033;-70
2023/01/11 11:39:47;;;;;;;13.13;5.20;;;;;;;;;;5154480;27;20034;-75
2023/01/11 11:42:17;;;;;;;18.52;5.25;;;;;;;;;;5153999;27;20142;-74
2023/01/11 11:44:42;;;;;;;9.25;5.20;;;;;;;;;;5142608;27;20031;-71
2023/01/11 11:47:13;;;;;;;9.18;5.20;;;;;;;;;;5153967;27;20383;-73
2023/01/11 11:49:39;;;;;;;13.10;5.30;;;;;;;;;;5152365;27;20035;-74
2023/01/11 11:52:06;;;;;;;11.15;5.50;;;;;;;;;;5150123;27;20045;-75
2023/01/11 11:54:55;;;;;;;12.60;6.38;;;;;;;;;;5153713;27;20030;-74
2023/01/11 11:57:38;;;;;;;11.23;5.53;;;;;;;;;;5154137;27;20466;-73
2023/01/11 12:00:08;;;;;;;12.85;5.15;;;;;;;;;;5152615;27;20023;-73
2023/01/11 12:02:35;;;;;;;11.60;5.13;;;;;;;;;;5153924;27;20023;-75
2023/01/11 12:05:07;;;;;;;8.57;5.07;;;;;;;;;;5151868;27;20114;-73
2023/01/11 12:07:42;;;;;;;11.10;4.53;;;;;;;;;;5150817;27;20058;-75
2023/01/11 12:10:23;;;;;;;12.02;4.35;;;;;;;;;;5152099;27;20023;-73
2023/01/11 12:13:08;;;;;;;;;;;;;;;;;;5152680;27;20026;-73
2023/01/11 12:15:33;;;;;;;7.88;4.10;;;;;;;;;;5152028;27;19914;-72
2023/01/11 12:18:22;;;;;;;7.03;3.80;;;;;;;;;;5152770;27;20018;-74
2023/01/11 12:20:48;;;;;;;10.70;4.13;;;;;;;;;;5153330;27;20030;-73
2023/01/11 12:23:23;;;;;;;11.02;4.03;;;;;;;;;;5163800;27;20191;-75
2023/01/11 12:26:09;;;;;;;6.43;3.17;;;;;;;;;;5160430;27;20273;-72
2023/01/11 12:28:52;;;;;;;8.38;2.80;;;;;;;;;;5153885;27;20029;-71
2023/01/11 12:31:32;;;;;;;7.32;3.20;;;;;;;;;;5153769;27;20497;-74
2023/01/11 12:34:23;;;;;;;8.80;3.08;;;;;;;;;;5154180;27;20478;-71
2023/01/11 12:37:24;;;;;;;25.30;3.28;;;;;;;;;;5162765;27;20049;-74
2023/01/11 12:40:16;;;;;;;10.70;2.70;;;;;;;;;;5163197;27;20027;-74
2023/01/11 12:43:24;;;;;;;9.15;2.60;;;;;;;;;;5153487;27;20042;-76
2023/01/11 12:45:58;;;;;;;9.05;2.90;;;;;;;;;;5153049;27;20046;-75
2023/01/11 12:48:48;;;;;;;9.80;2.88;;;;;;;;;;5153253;27;20027;-77
2023/01/11 12:51:49;;;;;;;7.88;2.70;;;;;;;;;;5155360;27;20281;-73
2023/01/11 12:54:17;;;;;;;;;;;;;;;;;;5155752;27;20023;-74
2023/01/11 12:56:57;;;;;;;8.57;2.60;;;;;;;;;;5154516;27;20350;-72
2023/01/11 12:59:54;;;;;;;12.13;2.90;;;;;;;;;;5153697;27;20026;-74
2023/01/11 13:02:45;;;;;;;16.23;3.13;;;;;;;;;;5153962;27;20502;-73
2023/01/11 13:05:23;;;;;;;8.90;2.80;;;;;;;;;;5152241;27;20059;-73
2023/01/11 13:07:51;;;;;;;12.25;3.30;;;;;;;;;;5152941;27;20065;-73
2023/01/11 13:10:46;;;;;;;14.43;2.90;;;;;;;;;;5152616;27;20038;-74
2023/01/11 13:13:24;;;;;;;8.73;3.10;;;;;;;;;;5130539;27;20037;-78
2023/01/11 13:16:04;;;;;;;11.30;2.70;;;;;;;;;;5157609;27;20037;-77
2023/01/11 13:18:46;;;;;;;13.55;3.47;;;;;;;;;;5157028;27;20030;-77
2023/01/11 13:21:24;;;;;;;12.52;2.88;;;;;;;;;;5154691;27;20172;-75
2023/01/11 13:23:56;;;;;;;13.05;2.78;;;;;;;;;;5152140;27;20038;-78
2023/01/11 13:26:27;;;;;;;14.45;2.78;;;;;;;;;;5152850;27;20034;-79
2023/01/11 13:29:03;;;;;;;14.88;2.90;;;;;;;;;;5152642;27;20018;-81
2023/01/11 13:31:31;;;;;;;14.50;2.70;;;;;;;;;;5152880;27;20087;-80
2023/01/11 13:34:03;;;;;;;10.88;2.47;;;;;;;;;;5155123;27;20468;-79
2023/01/11 13:36:44;;;;;;;12.10;2.55;;;;;;;;;;5151815;27;20105;-78
2023/01/11 13:39:42;;;;;;;13.38;2.55;;;;;;;;;;5152213;27;20022;-78
2023/01/11 13:42:22;;;;;;;11.85;2.60;;;;;;;;;;5147926;27;20043;-81
2023/01/11 13:45:05;;;;;;;12.25;2.70;;;;;;;;;;5150437;27;20019;-81
2023/01/11 13:47:53;;;;;;;13.40;2.83;;;;;;;;;;5150767;27;20015;-81
2023/01/11 13:50:41;;;;;;;17.80;3.00;;;;;;;;;;5150648;27;20023;-81
2023/01/11 13:53:08;;;;;;;13.43;2.72;;;;;;;;;;5150739;27;20026;-80
2023/01/11 13:55:49;;;;;;;14.43;3.05;;;;;;;;;;5150389;27;20027;-81
2023/01/11 13:58:35;;;;;;;;;;;;;;;;;;5151752;27;20029;-79
2023/01/11 14:01:07;;;;;;;11.77;2.85;;;;;;;;;;5152226;27;19933;-81
2023/01/11 14:03:49;;;;;;;18.55;3.08;;;;;;;;;;5151111;27;20086;-78
2023/01/11 14:06:26;;;;;;;17.98;2.90;;;;;;;;;;5152136;27;20034;-81
2023/01/11 14:09:07;;;;;;;14.45;2.97;;;;;;;;;;5152113;27;20022;-81
2023/01/11 14:11:51;;;;;;;17.70;3.00;;;;;;;;;;5151787;27;20429;-80
2023/01/11 14:14:54;;;;;;;13.63;3.00;;;;;;;;;;5151756;27;20023;-80
2023/01/11 14:17:50;;;;;;;18.65;3.53;;;;;;;;;;5150990;27;20084;-84
2023/01/11 14:20:37;;;;;;;17.30;4.05;;;;;;;;;;5152249;27;20497;-86
2023/01/11 14:23:12;;;;;;;14.68;3.42;;;;;;;;;;5152212;27;20098;-75
2023/01/11 14:26:16;;;;;;;17.10;3.58;;;;;;;;;;5151670;27;20026;-80
2023/01/11 14:29:02;;;;;;;39.78;8.02;;;;;;;;;;5121408;27;20045;-81
2023/01/11 14:31:31;;;;;;;29.15;5.88;;;;;;;;;;5154556;27;20694;-80
2023/01/11 14:34:15;;;;;;;20.42;3.85;;;;;;;;;;5151816;27;20030;-83
2023/01/11 14:36:51;;;;;;;16.33;3.55;;;;;;;;;;5153271;27;20037;-77
2023/01/11 14:39:38;;;;;;;20.65;3.85;;;;;;;;;;5155079;27;20091;-80
2023/01/11 14:42:09;;;;;;;23.88;3.92;;;;;;;;;;5151804;27;20027;-78
2023/01/11 14:44:53;;;;;;;20.70;3.58;;;;;;;;;;5155658;27;20089;-79
2023/01/11 14:47:42;;;;;;;17.20;3.40;;;;;;;;;;5155712;27;20067;-75
2023/01/11 14:50:23;;;;;;;21.05;3.88;;;;;;;;;;5155242;27;20202;-76
2023/01/11 14:52:51;;;;;;;23.77;3.67;;;;;;;;;;5160885;27;20023;-74
2023/01/11 14:55:24;;;;;;;20.52;3.67;;;;;;;;;;5155408;27;20113;-79
2023/01/11 14:57:55;;;;;;;16.77;3.83;;;;;;;;;;5155287;27;20027;-78
2023/01/11 15:00:21;;;;;;;20.55;3.60;;;;;;;;;;5156154;27;20072;-76
2023/01/11 15:03:09;;;;;;;23.60;3.22;;;;;;;;;;5155468;27;20027;-76
2023/01/11 15:05:37;;;;;;;24.35;3.38;;;;;;;;;;5159315;27;20019;-77
2023/01/11 15:08:08;;;;;;;21.55;3.38;;;;;;;;;;5161512;27;20026;-81
2023/01/11 15:10:34;;;;;;;20.35;3.80;;;;;;;;;;5155440;27;20042;-78
2023/01/11 15:13:04;;;;;;;22.95;3.53;;;;;;;;;;5163696;27;20022;-76
2023/01/11 15:18:19;;;;;;;20.05;3.42;;;;;;;;;;5155731;27;20072;-69
2023/01/11 15:20:56;;;;;;;22.50;3.28;;;;;;;;;;5154892;27;20027;-77
2023/01/11 15:23:22;;;;;;;20.40;3.08;;;;;;;;;;5154797;27;20553;-76
2023/01/11 15:25:58;;;;;;;25.60;3.83;;;;;;;;;;5165034;27;20026;-76
2023/01/11 15:28:53;;;;;;;19.48;3.05;;;;;;;;;;5166263;27;20026;-76
2023/01/11 15:31:42;;;;;;;27.77;5.30;;;;;;;;;;5166199;27;20018;-76